METAR AND TAF INFORMATION
METAR FOR VTBS
ADDS - METARS form results

(1240 UTC 23 January 2019)
Data provider http://aviationweather.gov/metar/data/
 
METAR text: VTBS 231230Z 36004KT 330V080 9999 FEW025 29/16 Q1012 NOSIG
Conditions at: VTBS (CHON BURI/SATTAH, TH) observed 1230 UTC 23 January 2019
Temperature: 29.0°C (84°F)
Dewpoint: 16.0°C (61°F) [RH = 45%]
Pressure (altimeter): 29.88 inches Hg (1012.0 mb)
Winds: from the N (360 degrees) at 5 MPH (4 knots; 2.1 m/s)
Visibility: 6 or more miles (10+ km)
Ceiling: at least 12,000 feet AGL
Clouds: few clouds at 2500 feet AGL
Weather: no significant weather observed at this time

METAR text: VTBS 231200Z 02005KT 350V080 9999 FEW025 29/15 Q1012 NOSIG
Conditions at: VTBS (CHON BURI/SATTAH, TH) observed 1200 UTC 23 January 2019
Temperature: 29.0°C (84°F)
Dewpoint: 15.0°C (59°F) [RH = 43%]
Pressure (altimeter): 29.88 inches Hg (1012.0 mb)
Winds: from the NNE (20 degrees) at 6 MPH (5 knots; 2.6 m/s)
Visibility: 6 or more miles (10+ km)
Ceiling: at least 12,000 feet AGL
Clouds: few clouds at 2500 feet AGL
Weather: no significant weather observed at this time

Forecast for: VTBS (CHON BURI/SATTAH, TH)
Text: TAF VTBS 231100Z 2312/2418 01005KT 9999 FEW040
Forecast period: 1200 UTC 23 January 2019 to 0200 UTC 24 January 2019
Forecast type: FROM: standard forecast or significant change
Winds: from the N (10 degrees) at 6 MPH (5 knots; 2.6 m/s)
Visibility: 6 or more miles 10+ km)
Ceiling: at least 12,000 feet AGL
Clouds: few clouds at 4000 feet AGL
Weather: no significant weather forecast for this period
Text: BECMG 2402/2404 08010KT FEW025
Forecast period: 0200 to 1400 UTC 24 January 2019
Forecast type: BECOMING: Conditions expected to become as follows by 0400 UTC 24 January 2019
Winds: from the E (80 degrees) at 12 MPH (10 knots; 5.1 m/s)
Visibility: 6 or more miles 10+ km)
Ceiling: at least 12,000 feet AGL
Clouds: few clouds at 2500 feet AGL
Weather: no significant weather forecast for this period
Text: BECMG 2414/2416 35005KT FEW040
Forecast period: 1400 to 1800 UTC 24 January 2019
Forecast type: BECOMING: Conditions expected to become as follows by 1600 UTC 24 January 2019
Winds: from the N (350 degrees) at 6 MPH (5 knots; 2.6 m/s)
Visibility: 6 or more miles 10+ km)
Ceiling: at least 12,000 feet AGL
Clouds: few clouds at 4000 feet AGL
Weather: no significant weather forecast for this period

 AIRPORT MAP

 RUNWAY INFORMATION

 AIRPORT FREQUENCIES
Type ATIS Name Frequency 127.8 MHZ
Type GROUND (EA Name Frequency 121.65 MHZ
Type GROUND (MA Name Frequency 121.75 MHZ
Type GROUND (WE Name Frequency 121.95 MHZ
Type TOWER (01L Name Frequency 119 MHZ
Type TOWER (01R Name Frequency 118.2 MHZ

 AIRPORT NEAR NAVIGATION AIDS
Type VOR-DME Name Suvarnabhumi Intl Frequency 111400 KHZ



2018 Air Astana Virtual Airline